sensor_id;sensor_type;location;lat;lon;timestamp;P1;durP1;ratioP1;P2;durP2;ratioP2
27839;SDS011;15207;42.182;24.308;2023-03-11T00:00:30;17.70;;;10.30;;
27839;SDS011;15207;42.182;24.308;2023-03-11T00:02:58;17.85;;;9.60;;
27839;SDS011;15207;42.182;24.308;2023-03-11T00:05:27;15.80;;;9.30;;
27839;SDS011;15207;42.182;24.308;2023-03-11T00:07:55;19.50;;;9.83;;
27839;SDS011;15207;42.182;24.308;2023-03-11T00:10:24;19.40;;;8.90;;
27839;SDS011;15207;42.182;24.308;2023-03-11T00:12:51;15.40;;;8.50;;
27839;SDS011;15207;42.182;24.308;2023-03-11T00:15:17;17.40;;;8.40;;
27839;SDS011;15207;42.182;24.308;2023-03-11T00:17:43;14.10;;;8.50;;
27839;SDS011;15207;42.182;24.308;2023-03-11T00:20:14;13.60;;;8.40;;
27839;SDS011;15207;42.182;24.308;2023-03-11T00:22:45;17.35;;;9.90;;
27839;SDS011;15207;42.182;24.308;2023-03-11T00:25:11;14.57;;;9.80;;
27839;SDS011;15207;42.182;24.308;2023-03-11T00:27:37;17.00;;;10.35;;
27839;SDS011;15207;42.182;24.308;2023-03-11T00:30:03;21.40;;;10.70;;
27839;SDS011;15207;42.182;24.308;2023-03-11T00:32:29;18.80;;;12.50;;
27839;SDS011;15207;42.182;24.308;2023-03-11T00:34:54;23.20;;;12.60;;
27839;SDS011;15207;42.182;24.308;2023-03-11T00:37:20;21.05;;;13.60;;
27839;SDS011;15207;42.182;24.308;2023-03-11T00:39:45;19.30;;;13.35;;
27839;SDS011;15207;42.182;24.308;2023-03-11T00:42:11;16.90;;;11.20;;
27839;SDS011;15207;42.182;24.308;2023-03-11T00:44:36;17.75;;;10.50;;
27839;SDS011;15207;42.182;24.308;2023-03-11T00:47:02;22.35;;;10.65;;
27839;SDS011;15207;42.182;24.308;2023-03-11T00:49:27;20.10;;;11.00;;
27839;SDS011;15207;42.182;24.308;2023-03-11T00:51:53;20.55;;;11.65;;
27839;SDS011;15207;42.182;24.308;2023-03-11T00:54:18;20.88;;;10.82;;
27839;SDS011;15207;42.182;24.308;2023-03-11T00:59:09;17.35;;;11.10;;
27839;SDS011;15207;42.182;24.308;2023-03-11T01:01:35;18.30;;;11.15;;
27839;SDS011;15207;42.182;24.308;2023-03-11T01:04:00;14.37;;;11.37;;
27839;SDS011;15207;42.182;24.308;2023-03-11T01:06:26;37.80;;;16.70;;
27839;SDS011;15207;42.182;24.308;2023-03-11T01:08:51;25.80;;;15.00;;
27839;SDS011;15207;42.182;24.308;2023-03-11T01:11:17;27.40;;;15.30;;
27839;SDS011;15207;42.182;24.308;2023-03-11T01:13:43;32.40;;;16.60;;
27839;SDS011;15207;42.182;24.308;2023-03-11T01:16:08;21.30;;;13.50;;
27839;SDS011;15207;42.182;24.308;2023-03-11T01:18:33;23.40;;;12.10;;
27839;SDS011;15207;42.182;24.308;2023-03-11T01:20:59;19.50;;;11.35;;
27839;SDS011;15207;42.182;24.308;2023-03-11T01:23:25;17.90;;;11.30;;
27839;SDS011;15207;42.182;24.308;2023-03-11T01:25:50;17.65;;;10.70;;
27839;SDS011;15207;42.182;24.308;2023-03-11T01:28:16;17.50;;;11.95;;
27839;SDS011;15207;42.182;24.308;2023-03-11T01:30:41;18.93;;;11.00;;
27839;SDS011;15207;42.182;24.308;2023-03-11T01:33:08;19.30;;;11.20;;
27839;SDS011;15207;42.182;24.308;2023-03-11T01:35:39;21.95;;;11.40;;
27839;SDS011;15207;42.182;24.308;2023-03-11T01:38:06;19.30;;;11.90;;
27839;SDS011;15207;42.182;24.308;2023-03-11T01:40:36;21.85;;;11.10;;
27839;SDS011;15207;42.182;24.308;2023-03-11T01:43:05;14.80;;;10.60;;
27839;SDS011;15207;42.182;24.308;2023-03-11T01:48:17;17.15;;;11.05;;
27839;SDS011;15207;42.182;24.308;2023-03-11T01:50:44;17.77;;;10.30;;
27839;SDS011;15207;42.182;24.308;2023-03-11T01:53:12;16.08;;;10.55;;
27839;SDS011;15207;42.182;24.308;2023-03-11T01:55:40;19.50;;;11.40;;
27839;SDS011;15207;42.182;24.308;2023-03-11T01:58:08;17.50;;;10.50;;
27839;SDS011;15207;42.182;24.308;2023-03-11T02:00:38;17.30;;;9.65;;
27839;SDS011;15207;42.182;24.308;2023-03-11T02:03:08;18.50;;;9.60;;
27839;SDS011;15207;42.182;24.308;2023-03-11T02:05:38;15.60;;;9.00;;
27839;SDS011;15207;42.182;24.308;2023-03-11T02:08:04;18.10;;;9.60;;
27839;SDS011;15207;42.182;24.308;2023-03-11T02:10:31;14.30;;;9.70;;
27839;SDS011;15207;42.182;24.308;2023-03-11T02:12:56;14.65;;;9.20;;
27839;SDS011;15207;42.182;24.308;2023-03-11T02:15:23;16.60;;;9.52;;
27839;SDS011;15207;42.182;24.308;2023-03-11T02:17:49;17.50;;;9.30;;
27839;SDS011;15207;42.182;24.308;2023-03-11T02:23:17;16.50;;;9.20;;
27839;SDS011;15207;42.182;24.308;2023-03-11T02:28:31;12.57;;;8.90;;
27839;SDS011;15207;42.182;24.308;2023-03-11T02:30:59;16.20;;;9.20;;
27839;SDS011;15207;42.182;24.308;2023-03-11T02:33:25;14.35;;;8.85;;
27839;SDS011;15207;42.182;24.308;2023-03-11T02:35:55;12.80;;;8.47;;
27839;SDS011;15207;42.182;24.308;2023-03-11T02:38:21;16.10;;;8.30;;
27839;SDS011;15207;42.182;24.308;2023-03-11T02:40:51;14.80;;;9.50;;
27839;SDS011;15207;42.182;24.308;2023-03-11T02:43:27;11.90;;;9.00;;
27839;SDS011;15207;42.182;24.308;2023-03-11T02:46:15;16.20;;;8.70;;
27839;SDS011;15207;42.182;24.308;2023-03-11T02:48:42;12.83;;;8.37;;
27839;SDS011;15207;42.182;24.308;2023-03-11T02:51:08;13.80;;;7.80;;
27839;SDS011;15207;42.182;24.308;2023-03-11T02:53:42;13.90;;;8.65;;
27839;SDS011;15207;42.182;24.308;2023-03-11T02:56:11;12.10;;;8.00;;
27839;SDS011;15207;42.182;24.308;2023-03-11T02:58:37;10.57;;;7.63;;
27839;SDS011;15207;42.182;24.308;2023-03-11T03:01:03;11.30;;;6.95;;
27839;SDS011;15207;42.182;24.308;2023-03-11T03:03:28;16.37;;;8.63;;
27839;SDS011;15207;42.182;24.308;2023-03-11T03:05:54;17.30;;;7.50;;
27839;SDS011;15207;42.182;24.308;2023-03-11T03:08:20;18.20;;;8.20;;
27839;SDS011;15207;42.182;24.308;2023-03-11T03:10:45;16.20;;;8.05;;
27839;SDS011;15207;42.182;24.308;2023-03-11T03:13:11;13.00;;;8.35;;
27839;SDS011;15207;42.182;24.308;2023-03-11T03:18:02;17.30;;;10.30;;
27839;SDS011;15207;42.182;24.308;2023-03-11T03:20:28;18.10;;;9.60;;
27839;SDS011;15207;42.182;24.308;2023-03-11T03:22:53;20.20;;;9.70;;
27839;SDS011;15207;42.182;24.308;2023-03-11T03:25:19;16.35;;;9.70;;
27839;SDS011;15207;42.182;24.308;2023-03-11T03:27:45;16.30;;;9.00;;
27839;SDS011;15207;42.182;24.308;2023-03-11T03:30:10;15.90;;;9.20;;
27839;SDS011;15207;42.182;24.308;2023-03-11T03:32:36;13.80;;;8.70;;
27839;SDS011;15207;42.182;24.308;2023-03-11T03:35:01;16.20;;;8.85;;
27839;SDS011;15207;42.182;24.308;2023-03-11T03:37:29;5.75;;;3.95;;
27839;SDS011;15207;42.182;24.308;2023-03-11T03:39:57;6.20;;;3.10;;
27839;SDS011;15207;42.182;24.308;2023-03-11T03:42:23;6.45;;;3.80;;
27839;SDS011;15207;42.182;24.308;2023-03-11T03:44:49;10.15;;;4.35;;
27839;SDS011;15207;42.182;24.308;2023-03-11T03:47:16;12.27;;;6.60;;
27839;SDS011;15207;42.182;24.308;2023-03-11T03:49:41;10.80;;;6.10;;
27839;SDS011;15207;42.182;24.308;2023-03-11T03:52:07;10.73;;;6.43;;
27839;SDS011;15207;42.182;24.308;2023-03-11T03:54:32;11.80;;;5.80;;
27839;SDS011;15207;42.182;24.308;2023-03-11T03:56:58;7.90;;;6.00;;
27839;SDS011;15207;42.182;24.308;2023-03-11T03:59:24;8.70;;;6.10;;
27839;SDS011;15207;42.182;24.308;2023-03-11T04:01:49;11.95;;;6.60;;
27839;SDS011;15207;42.182;24.308;2023-03-11T04:04:15;9.45;;;6.10;;
27839;SDS011;15207;42.182;24.308;2023-03-11T04:06:41;12.40;;;6.40;;
27839;SDS011;15207;42.182;24.308;2023-03-11T04:09:08;10.50;;;6.22;;
27839;SDS011;15207;42.182;24.308;2023-03-11T04:11:35;10.30;;;6.70;;
27839;SDS011;15207;42.182;24.308;2023-03-11T04:14:01;16.67;;;7.15;;
27839;SDS011;15207;42.182;24.308;2023-03-11T04:16:27;9.30;;;6.90;;
27839;SDS011;15207;42.182;24.308;2023-03-11T04:18:52;12.63;;;6.60;;
27839;SDS011;15207;42.182;24.308;2023-03-11T04:21:18;11.75;;;7.60;;
27839;SDS011;15207;42.182;24.308;2023-03-11T04:23:44;15.90;;;9.30;;
27839;SDS011;15207;42.182;24.308;2023-03-11T04:26:09;18.00;;;9.30;;
27839;SDS011;15207;42.182;24.308;2023-03-11T04:28:35;12.65;;;7.55;;
27839;SDS011;15207;42.182;24.308;2023-03-11T04:31:00;13.60;;;7.70;;
27839;SDS011;15207;42.182;24.308;2023-03-11T04:33:26;12.80;;;7.30;;
27839;SDS011;15207;42.182;24.308;2023-03-11T04:35:51;14.45;;;7.65;;
27839;SDS011;15207;42.182;24.308;2023-03-11T04:38:17;12.77;;;7.45;;
27839;SDS011;15207;42.182;24.308;2023-03-11T04:40:42;13.32;;;6.80;;
27839;SDS011;15207;42.182;24.308;2023-03-11T04:43:08;20.35;;;9.05;;
27839;SDS011;15207;42.182;24.308;2023-03-11T04:45:36;23.90;;;7.80;;
27839;SDS011;15207;42.182;24.308;2023-03-11T04:48:02;12.05;;;6.85;;
27839;SDS011;15207;42.182;24.308;2023-03-11T04:50:28;14.05;;;6.80;;
27839;SDS011;15207;42.182;24.308;2023-03-11T04:52:54;9.20;;;6.10;;
27839;SDS011;15207;42.182;24.308;2023-03-11T04:55:20;11.70;;;6.87;;
27839;SDS011;15207;42.182;24.308;2023-03-11T04:57:46;11.17;;;6.63;;
27839;SDS011;15207;42.182;24.308;2023-03-11T05:00:12;10.55;;;7.00;;
27839;SDS011;15207;42.182;24.308;2023-03-11T05:02:39;12.05;;;6.40;;
27839;SDS011;15207;42.182;24.308;2023-03-11T05:05:06;17.60;;;7.25;;
27839;SDS011;15207;42.182;24.308;2023-03-11T05:07:34;19.60;;;7.43;;
27839;SDS011;15207;42.182;24.308;2023-03-11T05:10:00;16.13;;;6.93;;
27839;SDS011;15207;42.182;24.308;2023-03-11T05:12:27;9.45;;;6.05;;
27839;SDS011;15207;42.182;24.308;2023-03-11T05:17:18;13.65;;;6.55;;
27839;SDS011;15207;42.182;24.308;2023-03-11T05:19:44;12.43;;;5.80;;
27839;SDS011;15207;42.182;24.308;2023-03-11T05:22:10;10.15;;;6.10;;
27839;SDS011;15207;42.182;24.308;2023-03-11T05:24:36;10.80;;;5.20;;
27839;SDS011;15207;42.182;24.308;2023-03-11T05:27:01;8.40;;;5.60;;
27839;SDS011;15207;42.182;24.308;2023-03-11T05:29:28;9.90;;;5.15;;
27839;SDS011;15207;42.182;24.308;2023-03-11T05:31:53;12.40;;;6.90;;
27839;SDS011;15207;42.182;24.308;2023-03-11T05:34:19;17.83;;;7.88;;
27839;SDS011;15207;42.182;24.308;2023-03-11T05:36:45;12.75;;;7.30;;
27839;SDS011;15207;42.182;24.308;2023-03-11T05:39:10;12.53;;;6.50;;
27839;SDS011;15207;42.182;24.308;2023-03-11T05:41:36;9.40;;;5.40;;
27839;SDS011;15207;42.182;24.308;2023-03-11T05:44:02;9.50;;;6.60;;
27839;SDS011;15207;42.182;24.308;2023-03-11T05:46:28;12.00;;;6.50;;
27839;SDS011;15207;42.182;24.308;2023-03-11T05:48:54;17.75;;;7.40;;
27839;SDS011;15207;42.182;24.308;2023-03-11T05:51:19;23.50;;;8.65;;
27839;SDS011;15207;42.182;24.308;2023-03-11T05:53:45;14.45;;;7.25;;
27839;SDS011;15207;42.182;24.308;2023-03-11T05:56:16;11.70;;;6.65;;
27839;SDS011;15207;42.182;24.308;2023-03-11T05:58:43;13.10;;;6.95;;
27839;SDS011;15207;42.182;24.308;2023-03-11T06:01:10;12.60;;;6.30;;
27839;SDS011;15207;42.182;24.308;2023-03-11T06:03:36;7.95;;;5.18;;
27839;SDS011;15207;42.182;24.308;2023-03-11T06:06:03;6.37;;;4.87;;
27839;SDS011;15207;42.182;24.308;2023-03-11T06:08:30;14.67;;;6.30;;
27839;SDS011;15207;42.182;24.308;2023-03-11T06:11:08;18.40;;;7.27;;
27839;SDS011;15207;42.182;24.308;2023-03-11T06:13:35;14.83;;;6.13;;
27839;SDS011;15207;42.182;24.308;2023-03-11T06:16:01;15.30;;;6.40;;
27839;SDS011;15207;42.182;24.308;2023-03-11T06:18:27;21.65;;;6.55;;
27839;SDS011;15207;42.182;24.308;2023-03-11T06:20:53;17.90;;;7.70;;
27839;SDS011;15207;42.182;24.308;2023-03-11T06:23:21;12.50;;;6.80;;
27839;SDS011;15207;42.182;24.308;2023-03-11T06:25:56;11.00;;;5.90;;
27839;SDS011;15207;42.182;24.308;2023-03-11T06:28:24;8.00;;;5.33;;
27839;SDS011;15207;42.182;24.308;2023-03-11T06:30:49;10.05;;;5.25;;
27839;SDS011;15207;42.182;24.308;2023-03-11T06:33:15;7.30;;;5.05;;
27839;SDS011;15207;42.182;24.308;2023-03-11T06:35:41;6.10;;;4.70;;
27839;SDS011;15207;42.182;24.308;2023-03-11T06:38:07;7.30;;;4.70;;
27839;SDS011;15207;42.182;24.308;2023-03-11T06:40:33;9.10;;;5.40;;
27839;SDS011;15207;42.182;24.308;2023-03-11T06:42:58;11.40;;;4.60;;
27839;SDS011;15207;42.182;24.308;2023-03-11T06:45:24;9.90;;;4.70;;
27839;SDS011;15207;42.182;24.308;2023-03-11T06:47:51;11.05;;;5.10;;
27839;SDS011;15207;42.182;24.308;2023-03-11T06:50:16;17.80;;;4.47;;
27839;SDS011;15207;42.182;24.308;2023-03-11T06:52:42;12.30;;;4.00;;
27839;SDS011;15207;42.182;24.308;2023-03-11T06:55:07;7.60;;;3.00;;
27839;SDS011;15207;42.182;24.308;2023-03-11T06:57:33;8.30;;;2.80;;
27839;SDS011;15207;42.182;24.308;2023-03-11T06:59:59;21.65;;;2.80;;
27839;SDS011;15207;42.182;24.308;2023-03-11T07:02:24;12.70;;;2.80;;
27839;SDS011;15207;42.182;24.308;2023-03-11T07:04:50;13.20;;;2.80;;
27839;SDS011;15207;42.182;24.308;2023-03-11T07:07:22;8.95;;;2.60;;
27839;SDS011;15207;42.182;24.308;2023-03-11T07:23:08;6.78;;;3.60;;
27839;SDS011;15207;42.182;24.308;2023-03-11T07:25:34;6.20;;;3.10;;
27839;SDS011;15207;42.182;24.308;2023-03-11T07:28:00;7.00;;;3.25;;
27839;SDS011;15207;42.182;24.308;2023-03-11T07:30:25;5.20;;;2.65;;
27839;SDS011;15207;42.182;24.308;2023-03-11T07:32:52;7.90;;;3.00;;
27839;SDS011;15207;42.182;24.308;2023-03-11T07:37:43;8.15;;;2.00;;
27839;SDS011;15207;42.182;24.308;2023-03-11T07:40:09;4.65;;;1.70;;
27839;SDS011;15207;42.182;24.308;2023-03-11T07:42:35;8.75;;;1.30;;
27839;SDS011;15207;42.182;24.308;2023-03-11T07:45:01;3.25;;;1.60;;
27839;SDS011;15207;42.182;24.308;2023-03-11T07:47:26;6.15;;;2.00;;
27839;SDS011;15207;42.182;24.308;2023-03-11T07:49:52;6.50;;;2.05;;
27839;SDS011;15207;42.182;24.308;2023-03-11T07:52:17;17.70;;;1.90;;
27839;SDS011;15207;42.182;24.308;2023-03-11T07:54:44;7.10;;;2.00;;
27839;SDS011;15207;42.182;24.308;2023-03-11T07:59:41;2.70;;;1.40;;
27839;SDS011;15207;42.182;24.308;2023-03-11T08:02:08;1.90;;;1.50;;
27839;SDS011;15207;42.182;24.308;2023-03-11T08:04:34;3.05;;;2.00;;
27839;SDS011;15207;42.182;24.308;2023-03-11T08:06:59;4.00;;;2.55;;
27839;SDS011;15207;42.182;24.308;2023-03-11T08:09:25;4.10;;;2.43;;
27839;SDS011;15207;42.182;24.308;2023-03-11T08:11:51;5.20;;;2.80;;
27839;SDS011;15207;42.182;24.308;2023-03-11T08:16:41;5.90;;;2.40;;
27839;SDS011;15207;42.182;24.308;2023-03-11T08:19:09;3.45;;;2.30;;
27839;SDS011;15207;42.182;24.308;2023-03-11T08:21:36;4.30;;;2.67;;
27839;SDS011;15207;42.182;24.308;2023-03-11T08:26:28;6.93;;;3.05;;
27839;SDS011;15207;42.182;24.308;2023-03-11T08:28:55;5.40;;;2.95;;
27839;SDS011;15207;42.182;24.308;2023-03-11T08:31:23;4.40;;;2.40;;
27839;SDS011;15207;42.182;24.308;2023-03-11T08:33:51;4.30;;;2.40;;
27839;SDS011;15207;42.182;24.308;2023-03-11T08:36:18;3.10;;;1.70;;
27839;SDS011;15207;42.182;24.308;2023-03-11T08:38:45;3.70;;;1.70;;
27839;SDS011;15207;42.182;24.308;2023-03-11T08:41:11;1.77;;;0.65;;
27839;SDS011;15207;42.182;24.308;2023-03-11T08:43:36;1.50;;;0.60;;
27839;SDS011;15207;42.182;24.308;2023-03-11T08:48:31;1.48;;;0.60;;
27839;SDS011;15207;42.182;24.308;2023-03-11T08:50:56;0.87;;;0.50;;
27839;SDS011;15207;42.182;24.308;2023-03-11T08:53:23;0.85;;;0.40;;
27839;SDS011;15207;42.182;24.308;2023-03-11T08:55:49;3.70;;;0.70;;
27839;SDS011;15207;42.182;24.308;2023-03-11T08:58:16;3.25;;;0.85;;
27839;SDS011;15207;42.182;24.308;2023-03-11T09:03:08;6.45;;;0.60;;
27839;SDS011;15207;42.182;24.308;2023-03-11T09:05:34;6.90;;;1.30;;
27839;SDS011;15207;42.182;24.308;2023-03-11T09:08:00;8.07;;;0.73;;
27839;SDS011;15207;42.182;24.308;2023-03-11T09:10:27;1.75;;;0.60;;
27839;SDS011;15207;42.182;24.308;2023-03-11T09:12:53;1.35;;;0.40;;
27839;SDS011;15207;42.182;24.308;2023-03-11T09:15:19;3.60;;;0.70;;
27839;SDS011;15207;42.182;24.308;2023-03-11T09:17:44;1.87;;;1.03;;
27839;SDS011;15207;42.182;24.308;2023-03-11T09:20:13;1.23;;;0.60;;
27839;SDS011;15207;42.182;24.308;2023-03-11T09:22:39;3.50;;;0.70;;
27839;SDS011;15207;42.182;24.308;2023-03-11T09:25:06;2.50;;;0.55;;
27839;SDS011;15207;42.182;24.308;2023-03-11T09:27:32;4.07;;;1.03;;
27839;SDS011;15207;42.182;24.308;2023-03-11T09:29:58;2.45;;;0.80;;
27839;SDS011;15207;42.182;24.308;2023-03-11T09:32:23;2.95;;;0.70;;
27839;SDS011;15207;42.182;24.308;2023-03-11T09:34:49;4.10;;;0.70;;
27839;SDS011;15207;42.182;24.308;2023-03-11T09:37:14;3.00;;;0.80;;
27839;SDS011;15207;42.182;24.308;2023-03-11T09:39:40;1.10;;;0.80;;
27839;SDS011;15207;42.182;24.308;2023-03-11T09:50:48;1.25;;;0.75;;
27839;SDS011;15207;42.182;24.308;2023-03-11T09:53:21;2.43;;;0.70;;
27839;SDS011;15207;42.182;24.308;2023-03-11T09:55:53;1.20;;;0.70;;
27839;SDS011;15207;42.182;24.308;2023-03-11T10:03:53;5.15;;;1.15;;
27839;SDS011;15207;42.182;24.308;2023-03-11T10:11:42;3.40;;;0.70;;
27839;SDS011;15207;42.182;24.308;2023-03-11T10:27:30;6.07;;;0.80;;
27839;SDS011;15207;42.182;24.308;2023-03-11T10:36:03;3.70;;;0.90;;
27839;SDS011;15207;42.182;24.308;2023-03-11T10:38:44;5.85;;;0.85;;
27839;SDS011;15207;42.182;24.308;2023-03-11T10:41:29;5.15;;;0.95;;
27839;SDS011;15207;42.182;24.308;2023-03-11T10:44:06;1.90;;;0.70;;
27839;SDS011;15207;42.182;24.308;2023-03-11T10:46:38;1.83;;;0.67;;
27839;SDS011;15207;42.182;24.308;2023-03-11T10:49:04;5.00;;;0.80;;
27839;SDS011;15207;42.182;24.308;2023-03-11T10:51:37;1.70;;;0.90;;
27839;SDS011;15207;42.182;24.308;2023-03-11T10:54:03;1.30;;;0.70;;
27839;SDS011;15207;42.182;24.308;2023-03-11T10:58:59;2.70;;;0.70;;
27839;SDS011;15207;42.182;24.308;2023-03-11T11:01:26;18.60;;;1.00;;
27839;SDS011;15207;42.182;24.308;2023-03-11T11:03:54;8.00;;;0.80;;
27839;SDS011;15207;42.182;24.308;2023-03-11T11:06:25;8.35;;;0.80;;
27839;SDS011;15207;42.182;24.308;2023-03-11T11:11:36;5.70;;;0.80;;
27839;SDS011;15207;42.182;24.308;2023-03-11T11:14:03;2.70;;;0.80;;
27839;SDS011;15207;42.182;24.308;2023-03-11T11:16:29;4.20;;;1.00;;
27839;SDS011;15207;42.182;24.308;2023-03-11T11:24:16;9.98;;;0.98;;
27839;SDS011;15207;42.182;24.308;2023-03-11T11:29:35;4.15;;;0.55;;
27839;SDS011;15207;42.182;24.308;2023-03-11T11:34:41;9.80;;;0.80;;
27839;SDS011;15207;42.182;24.308;2023-03-11T11:37:08;2.75;;;0.70;;
27839;SDS011;15207;42.182;24.308;2023-03-11T11:39:44;1.70;;;0.70;;
27839;SDS011;15207;42.182;24.308;2023-03-11T11:42:16;10.40;;;1.00;;
27839;SDS011;15207;42.182;24.308;2023-03-11T11:47:14;3.45;;;0.60;;
27839;SDS011;15207;42.182;24.308;2023-03-11T11:52:15;4.35;;;0.65;;
27839;SDS011;15207;42.182;24.308;2023-03-11T11:57:13;8.60;;;1.10;;
27839;SDS011;15207;42.182;24.308;2023-03-11T11:59:41;2.65;;;0.60;;
27839;SDS011;15207;42.182;24.308;2023-03-11T12:07:35;8.40;;;0.90;;
27839;SDS011;15207;42.182;24.308;2023-03-11T12:10:30;8.10;;;0.90;;
27839;SDS011;15207;42.182;24.308;2023-03-11T12:18:23;21.75;;;1.75;;
27839;SDS011;15207;42.182;24.308;2023-03-11T12:20:56;6.20;;;0.90;;
27839;SDS011;15207;42.182;24.308;2023-03-11T12:26:06;7.30;;;0.70;;
27839;SDS011;15207;42.182;24.308;2023-03-11T12:31:26;6.45;;;0.80;;
27839;SDS011;15207;42.182;24.308;2023-03-11T12:33:59;20.97;;;1.50;;
27839;SDS011;15207;42.182;24.308;2023-03-11T12:36:38;10.25;;;0.80;;
27839;SDS011;15207;42.182;24.308;2023-03-11T12:44:36;3.93;;;0.63;;
27839;SDS011;15207;42.182;24.308;2023-03-11T12:47:15;14.70;;;1.20;;
27839;SDS011;15207;42.182;24.308;2023-03-11T12:49:44;10.05;;;1.10;;
27839;SDS011;15207;42.182;24.308;2023-03-11T12:54:39;3.50;;;0.70;;
27839;SDS011;15207;42.182;24.308;2023-03-11T12:57:13;4.65;;;1.00;;
27839;SDS011;15207;42.182;24.308;2023-03-11T13:05:25;12.00;;;1.00;;
27839;SDS011;15207;42.182;24.308;2023-03-11T13:12:52;4.70;;;0.70;;
27839;SDS011;15207;42.182;24.308;2023-03-11T13:25:41;6.00;;;1.00;;
27839;SDS011;15207;42.182;24.308;2023-03-11T13:44:44;7.60;;;0.90;;
27839;SDS011;15207;42.182;24.308;2023-03-11T13:47:15;4.05;;;0.90;;
27839;SDS011;15207;42.182;24.308;2023-03-11T13:52:17;5.90;;;0.70;;
27839;SDS011;15207;42.182;24.308;2023-03-11T13:57:35;8.10;;;1.55;;
27839;SDS011;15207;42.182;24.308;2023-03-11T14:00:03;4.70;;;1.30;;
27839;SDS011;15207;42.182;24.308;2023-03-11T14:02:42;2.05;;;1.20;;
27839;SDS011;15207;42.182;24.308;2023-03-11T14:05:14;3.40;;;1.20;;
27839;SDS011;15207;42.182;24.308;2023-03-11T14:12:35;4.00;;;2.20;;
27839;SDS011;15207;42.182;24.308;2023-03-11T14:15:03;4.20;;;1.40;;
27839;SDS011;15207;42.182;24.308;2023-03-11T14:17:31;3.40;;;1.30;;
27839;SDS011;15207;42.182;24.308;2023-03-11T14:22:38;4.87;;;1.00;;
27839;SDS011;15207;42.182;24.308;2023-03-11T14:25:08;5.80;;;1.60;;
27839;SDS011;15207;42.182;24.308;2023-03-11T14:27:39;6.90;;;1.50;;
27839;SDS011;15207;42.182;24.308;2023-03-11T14:30:20;2.80;;;1.20;;
27839;SDS011;15207;42.182;24.308;2023-03-11T14:32:55;3.40;;;0.80;;
27839;SDS011;15207;42.182;24.308;2023-03-11T14:35:29;1.80;;;0.70;;
27839;SDS011;15207;42.182;24.308;2023-03-11T14:40:28;5.00;;;1.10;;
27839;SDS011;15207;42.182;24.308;2023-03-11T14:45:34;3.80;;;1.05;;
27839;SDS011;15207;42.182;24.308;2023-03-11T14:50:37;4.15;;;1.30;;
27839;SDS011;15207;42.182;24.308;2023-03-11T14:53:20;3.30;;;1.50;;
27839;SDS011;15207;42.182;24.308;2023-03-11T14:56:00;4.05;;;1.35;;
27839;SDS011;15207;42.182;24.308;2023-03-11T14:58:31;7.55;;;1.50;;
27839;SDS011;15207;42.182;24.308;2023-03-11T15:01:05;6.55;;;1.50;;
27839;SDS011;15207;42.182;24.308;2023-03-11T15:03:50;7.70;;;1.50;;
27839;SDS011;15207;42.182;24.308;2023-03-11T15:06:25;2.60;;;1.40;;
27839;SDS011;15207;42.182;24.308;2023-03-11T15:16:48;8.20;;;1.00;;
27839;SDS011;15207;42.182;24.308;2023-03-11T15:21:51;2.15;;;0.80;;
27839;SDS011;15207;42.182;24.308;2023-03-11T15:24:22;4.20;;;0.90;;
27839;SDS011;15207;42.182;24.308;2023-03-11T15:29:19;2.85;;;1.00;;
27839;SDS011;15207;42.182;24.308;2023-03-11T15:31:45;3.90;;;0.90;;
27839;SDS011;15207;42.182;24.308;2023-03-11T15:36:44;1.38;;;0.75;;
27839;SDS011;15207;42.182;24.308;2023-03-11T15:42:00;3.55;;;1.15;;
27839;SDS011;15207;42.182;24.308;2023-03-11T15:44:30;5.05;;;1.30;;
27839;SDS011;15207;42.182;24.308;2023-03-11T15:47:00;3.70;;;1.20;;
27839;SDS011;15207;42.182;24.308;2023-03-11T15:51:52;10.30;;;1.65;;
27839;SDS011;15207;42.182;24.308;2023-03-11T15:56:46;5.85;;;0.95;;
27839;SDS011;15207;42.182;24.308;2023-03-11T16:01:41;3.30;;;1.00;;
27839;SDS011;15207;42.182;24.308;2023-03-11T16:04:14;5.50;;;1.10;;
27839;SDS011;15207;42.182;24.308;2023-03-11T16:06:41;4.55;;;1.15;;
27839;SDS011;15207;42.182;24.308;2023-03-11T16:09:07;4.20;;;1.00;;
27839;SDS011;15207;42.182;24.308;2023-03-11T16:11:34;2.80;;;1.17;;
27839;SDS011;15207;42.182;24.308;2023-03-11T16:14:00;3.00;;;1.00;;
27839;SDS011;15207;42.182;24.308;2023-03-11T16:16:27;3.25;;;1.25;;
27839;SDS011;15207;42.182;24.308;2023-03-11T16:18:53;2.65;;;1.00;;
27839;SDS011;15207;42.182;24.308;2023-03-11T16:21:19;3.05;;;1.10;;
27839;SDS011;15207;42.182;24.308;2023-03-11T16:23:47;2.20;;;0.90;;
27839;SDS011;15207;42.182;24.308;2023-03-11T16:26:13;4.85;;;1.40;;
27839;SDS011;15207;42.182;24.308;2023-03-11T16:28:39;1.90;;;1.00;;
27839;SDS011;15207;42.182;24.308;2023-03-11T16:31:05;5.20;;;1.50;;
27839;SDS011;15207;42.182;24.308;2023-03-11T16:33:36;4.77;;;1.60;;
27839;SDS011;15207;42.182;24.308;2023-03-11T16:36:02;1.70;;;1.00;;
27839;SDS011;15207;42.182;24.308;2023-03-11T16:38:29;2.90;;;1.10;;
27839;SDS011;15207;42.182;24.308;2023-03-11T16:41:05;2.30;;;1.20;;
27839;SDS011;15207;42.182;24.308;2023-03-11T16:43:30;2.83;;;1.23;;
27839;SDS011;15207;42.182;24.308;2023-03-11T16:45:56;2.30;;;1.40;;
27839;SDS011;15207;42.182;24.308;2023-03-11T16:48:22;2.10;;;1.30;;
27839;SDS011;15207;42.182;24.308;2023-03-11T16:50:48;4.72;;;1.10;;
27839;SDS011;15207;42.182;24.308;2023-03-11T16:53:14;7.00;;;1.60;;
27839;SDS011;15207;42.182;24.308;2023-03-11T16:55:43;3.60;;;1.20;;
27839;SDS011;15207;42.182;24.308;2023-03-11T16:58:09;4.20;;;1.25;;
27839;SDS011;15207;42.182;24.308;2023-03-11T17:00:35;2.20;;;1.30;;
27839;SDS011;15207;42.182;24.308;2023-03-11T17:03:01;2.50;;;1.75;;
27839;SDS011;15207;42.182;24.308;2023-03-11T17:07:53;5.05;;;1.90;;
27839;SDS011;15207;42.182;24.308;2023-03-11T17:10:24;6.85;;;2.00;;
27839;SDS011;15207;42.182;24.308;2023-03-11T17:12:51;6.25;;;1.85;;
27839;SDS011;15207;42.182;24.308;2023-03-11T17:15:16;1.90;;;1.50;;
27839;SDS011;15207;42.182;24.308;2023-03-11T17:17:42;3.05;;;1.70;;
27839;SDS011;15207;42.182;24.308;2023-03-11T17:20:08;5.10;;;1.80;;
27839;SDS011;15207;42.182;24.308;2023-03-11T17:22:34;3.13;;;1.93;;
27839;SDS011;15207;42.182;24.308;2023-03-11T17:24:59;9.50;;;2.60;;
27839;SDS011;15207;42.182;24.308;2023-03-11T17:27:26;4.15;;;1.85;;
27839;SDS011;15207;42.182;24.308;2023-03-11T17:29:56;2.40;;;1.30;;
27839;SDS011;15207;42.182;24.308;2023-03-11T17:32:25;4.45;;;1.25;;
27839;SDS011;15207;42.182;24.308;2023-03-11T17:34:51;3.60;;;1.20;;
27839;SDS011;15207;42.182;24.308;2023-03-11T17:37:16;3.80;;;1.15;;
27839;SDS011;15207;42.182;24.308;2023-03-11T17:39:42;4.90;;;1.10;;
27839;SDS011;15207;42.182;24.308;2023-03-11T17:42:08;2.70;;;1.17;;
27839;SDS011;15207;42.182;24.308;2023-03-11T17:46:59;4.40;;;1.60;;
27839;SDS011;15207;42.182;24.308;2023-03-11T17:49:25;3.30;;;1.60;;
27839;SDS011;15207;42.182;24.308;2023-03-11T17:51:50;4.05;;;2.08;;
27839;SDS011;15207;42.182;24.308;2023-03-11T17:54:16;2.80;;;1.80;;
27839;SDS011;15207;42.182;24.308;2023-03-11T17:56:41;2.80;;;1.60;;
27839;SDS011;15207;42.182;24.308;2023-03-11T17:59:07;2.30;;;1.60;;
27839;SDS011;15207;42.182;24.308;2023-03-11T18:01:32;3.80;;;1.40;;
27839;SDS011;15207;42.182;24.308;2023-03-11T18:03:58;13.32;;;1.90;;
27839;SDS011;15207;42.182;24.308;2023-03-11T18:06:24;10.07;;;2.20;;
27839;SDS011;15207;42.182;24.308;2023-03-11T18:08:50;5.63;;;2.43;;